Bonaria — ICUS — position and weather

sailwx.info

Track history (hours):
 
Tides and Currents Weather Stations Pressure Air Temp Water Temp Dewpoint Dewpoint Depression Visibility Wind Speed Wind Dir Waves Ship Positions

Bonaria

Last reported at 2014-Sep-20 18:33 UTC. Time now 2014-Sep-22 00:13 UTC.
Position N 38°59' E 009°32'.

Length 213 m; draft 7 m.

Type: Ship. MMSI: 247322400.

Date/timePositionNaut miles runAvg speedWind from/ knotsBaromVisibWave heightAir tempDewpointWater temp
2014-Sep-20 18:33N 38°59' E 009°32'2019.5
2014-Sep-20 17:33N 39°09' E 009°10'5 4.7
2014-Sep-20 16:31N 39°13' E 009°06'0 0.0
2014-Sep-20 15:31N 39°13' E 009°06'0 0.0
2014-Sep-20 14:33N 39°13' E 009°06'0 0.0
2014-Sep-20 13:33N 39°13' E 009°06'0 0.0
2014-Sep-20 12:32N 39°13' E 009°06'0 0.0
2014-Sep-20 11:32N 39°13' E 009°06'0 0.0
2014-Sep-20 10:31N 39°13' E 009°06'0 0.0
2014-Sep-20 09:31N 39°13' E 009°06'0 0.0
2014-Sep-20 08:31N 39°13' E 009°06'5 5.4
2014-Sep-20 07:33N 39°08' E 009°11'14 0.4
2014-Sep-18 18:19N 39°01' E 009°26'1519.6
2014-Sep-18 17:32N 39°09' E 009°10'4 4.3
2014-Sep-18 16:32N 39°13' E 009°06'0 0.0
2014-Sep-18 15:31N 39°13' E 009°06'0 0.0
2014-Sep-18 14:31N 39°13' E 009°06'0 0.0
2014-Sep-18 13:33N 39°13' E 009°06'0 0.0
2014-Sep-18 12:33N 39°13' E 009°06'0 0.0
2014-Sep-18 11:32N 39°13' E 009°06'0 0.0
2014-Sep-18 10:32N 39°13' E 009°06'0 0.0
2014-Sep-18 09:32N 39°13' E 009°06'0 0.0
2014-Sep-18 08:33N 39°13' E 009°06'7 7.0
2014-Sep-18 07:33N 39°08' E 009°13'11 0.3
2014-Sep-16 18:30N 39°01' E 009°24'1717.6
2014-Sep-16 17:33N 39°11' E 009°07'2 1.7
2014-Sep-16 16:31N 39°13' E 009°06'0 0.0
2014-Sep-16 15:31N 39°13' E 009°06'0 0.0
2014-Sep-16 14:33N 39°13' E 009°06'0 0.0
2014-Sep-16 13:33N 39°13' E 009°06'0 0.0
2014-Sep-16 12:32N 39°13' E 009°06'0 0.0
2014-Sep-16 11:32N 39°13' E 009°06'0 0.0
2014-Sep-16 10:31N 39°13' E 009°06'0 0.0
2014-Sep-16 09:31N 39°13' E 009°06'0 0.0
2014-Sep-16 08:31N 39°13' E 009°06'0 0.0
2014-Sep-16 07:33N 39°13' E 009°06'0 0.0
2014-Sep-16 06:33N 39°13' E 009°06'2 2.1
2014-Sep-16 05:33N 39°11' E 009°07'  
2014-Sep-12 17:33N 39°09' E 009°10'5 4.9
2014-Sep-12 16:31N 39°13' E 009°06'0 0.0
2014-Sep-12 15:31N 39°13' E 009°06'0 0.0
2014-Sep-12 14:33N 39°13' E 009°06'0 0.0
2014-Sep-12 13:33N 39°13' E 009°06'0 0.0
2014-Sep-12 12:33N 39°13' E 009°06'0 0.0
2014-Sep-12 11:32N 39°13' E 009°06'0 0.0
2014-Sep-12 10:32N 39°13' E 009°06'0 0.0
2014-Sep-12 09:31N 39°13' E 009°06'0 0.0
2014-Sep-12 08:31N 39°13' E 009°06'0 0.0
2014-Sep-12 07:33N 39°13' E 009°06'0 0.0
2014-Sep-12 06:33N 39°13' E 009°06'3 2.5
2014-Sep-12 05:33N 39°10' E 009°08'  
Track history (hours):
 
Tides and Currents Weather Stations Pressure Air Temp Water Temp Dewpoint Dewpoint Depression Visibility Wind Speed Wind Dir Waves Ship Positions

Bonaria

Last reported at 2014-Sep-20 18:33 UTC. Time now 2014-Sep-22 00:13 UTC.
Position N 38°59' E 009°32'.

Length 213 m; draft 7 m.

Type: Ship. MMSI: 247322400.

Date/timePositionNaut miles runAvg speedWind from/ knotsBaromVisibWave heightAir tempDewpointWater temp
2014-Sep-20 18:33N 38°59' E 009°32'2019.5
2014-Sep-20 17:33N 39°09' E 009°10'5 4.7
2014-Sep-20 16:31N 39°13' E 009°06'0 0.0
2014-Sep-20 15:31N 39°13' E 009°06'0 0.0
2014-Sep-20 14:33N 39°13' E 009°06'0 0.0
2014-Sep-20 13:33N 39°13' E 009°06'0 0.0
2014-Sep-20 12:32N 39°13' E 009°06'0 0.0
2014-Sep-20 11:32N 39°13' E 009°06'0 0.0
2014-Sep-20 10:31N 39°13' E 009°06'0 0.0
2014-Sep-20 09:31N 39°13' E 009°06'0 0.0
2014-Sep-20 08:31N 39°13' E 009°06'5 5.4
2014-Sep-20 07:33N 39°08' E 009°11'14 0.4
2014-Sep-18 18:19N 39°01' E 009°26'1519.6
2014-Sep-18 17:32N 39°09' E 009°10'4 4.3
2014-Sep-18 16:32N 39°13' E 009°06'0 0.0
2014-Sep-18 15:31N 39°13' E 009°06'0 0.0
2014-Sep-18 14:31N 39°13' E 009°06'0 0.0
2014-Sep-18 13:33N 39°13' E 009°06'0 0.0
2014-Sep-18 12:33N 39°13' E 009°06'0 0.0
2014-Sep-18 11:32N 39°13' E 009°06'0 0.0
2014-Sep-18 10:32N 39°13' E 009°06'0 0.0
2014-Sep-18 09:32N 39°13' E 009°06'0 0.0
2014-Sep-18 08:33N 39°13' E 009°06'7 7.0
2014-Sep-18 07:33N 39°08' E 009°13'11 0.3
2014-Sep-16 18:30N 39°01' E 009°24'1717.6
2014-Sep-16 17:33N 39°11' E 009°07'2 1.7
2014-Sep-16 16:31N 39°13' E 009°06'0 0.0
2014-Sep-16 15:31N 39°13' E 009°06'0 0.0
2014-Sep-16 14:33N 39°13' E 009°06'0 0.0
2014-Sep-16 13:33N 39°13' E 009°06'0 0.0
2014-Sep-16 12:32N 39°13' E 009°06'0 0.0
2014-Sep-16 11:32N 39°13' E 009°06'0 0.0
2014-Sep-16 10:31N 39°13' E 009°06'0 0.0
2014-Sep-16 09:31N 39°13' E 009°06'0 0.0
2014-Sep-16 08:31N 39°13' E 009°06'0 0.0
2014-Sep-16 07:33N 39°13' E 009°06'0 0.0
2014-Sep-16 06:33N 39°13' E 009°06'2 2.1
2014-Sep-16 05:33N 39°11' E 009°07'  
2014-Sep-12 17:33N 39°09' E 009°10'5 4.9
2014-Sep-12 16:31N 39°13' E 009°06'0 0.0
2014-Sep-12 15:31N 39°13' E 009°06'0 0.0
2014-Sep-12 14:33N 39°13' E 009°06'0 0.0
2014-Sep-12 13:33N 39°13' E 009°06'0 0.0
2014-Sep-12 12:33N 39°13' E 009°06'0 0.0
2014-Sep-12 11:32N 39°13' E 009°06'0 0.0
2014-Sep-12 10:32N 39°13' E 009°06'0 0.0
2014-Sep-12 09:31N 39°13' E 009°06'0 0.0
2014-Sep-12 08:31N 39°13' E 009°06'0 0.0
2014-Sep-12 07:33N 39°13' E 009°06'0 0.0
2014-Sep-12 06:33N 39°13' E 009°06'3 2.5
2014-Sep-12 05:33N 39°10' E 009°08'  

Dump ship's entire track history